createdAt,value
2022-09-23T00:01:21.739Z,100.00
2022-09-23T00:03:49.446Z,100.00
2022-09-23T00:06:22.486Z,100.00
2022-09-23T00:08:50.898Z,100.00
2022-09-23T00:11:20.132Z,100.00
2022-09-23T00:13:49.794Z,100.00
2022-09-23T00:16:20.688Z,100.00
2022-09-23T00:18:50.278Z,100.00
2022-09-23T00:21:19.805Z,100.00
2022-09-23T00:23:47.166Z,100.00
2022-09-23T00:26:16.630Z,100.00
2022-09-23T00:28:44.869Z,100.00
2022-09-23T00:31:15.869Z,100.00
2022-09-23T00:33:43.376Z,100.00
2022-09-23T00:36:15.522Z,100.00
2022-09-23T00:38:43.668Z,100.00
2022-09-23T00:41:11.842Z,100.00
2022-09-23T00:43:53.119Z,100.00
2022-09-23T00:46:43.598Z,100.00
2022-09-23T00:49:19.140Z,100.00
2022-09-23T00:51:54.421Z,100.00
2022-09-23T00:54:24.403Z,100.00
2022-09-23T00:56:52.043Z,100.00
2022-09-23T00:59:20.799Z,100.00
2022-09-23T01:01:50.120Z,100.00
2022-09-23T01:04:17.505Z,100.00
2022-09-23T01:06:45.300Z,100.00
2022-09-23T01:09:12.675Z,100.00
2022-09-23T01:11:51.585Z,100.00
2022-09-23T01:14:40.443Z,100.00
2022-09-23T01:17:24.568Z,100.00
2022-09-23T01:20:24.361Z,100.00
2022-09-23T01:23:18.197Z,100.00
2022-09-23T01:25:47.107Z,100.00
2022-09-23T01:28:14.548Z,100.00
2022-09-23T01:30:51.073Z,100.00
2022-09-23T01:33:38.219Z,100.00
2022-09-23T01:36:11.709Z,100.00
2022-09-23T01:39:15.056Z,100.00
2022-09-23T01:41:49.633Z,100.00
2022-09-23T01:44:31.435Z,100.00
2022-09-23T01:47:10.958Z,100.00
2022-09-23T01:49:50.988Z,100.00
2022-09-23T01:52:43.390Z,100.00
2022-09-23T01:55:31.806Z,100.00
2022-09-23T01:58:10.316Z,100.00
2022-09-23T02:00:44.368Z,100.00
2022-09-23T02:03:21.003Z,100.00
2022-09-23T02:05:53.465Z,100.00
2022-09-23T02:08:26.371Z,100.00
2022-09-23T02:10:58.854Z,100.00
2022-09-23T02:13:48.492Z,100.00
2022-09-23T02:16:35.975Z,100.00
2022-09-23T02:19:27.666Z,100.00
2022-09-23T02:22:09.340Z,100.00
2022-09-23T02:24:39.610Z,100.00
2022-09-23T02:28:08.374Z,100.00
2022-09-23T02:30:47.048Z,100.00
2022-09-23T02:33:46.155Z,100.00
2022-09-23T02:36:38.171Z,100.00
2022-09-23T02:39:11.435Z,100.00
2022-09-23T02:42:07.682Z,100.00
2022-09-23T02:44:36.132Z,100.00
2022-09-23T02:47:03.894Z,100.00
2022-09-23T02:49:33.795Z,100.00
2022-09-23T02:52:04.677Z,100.00
2022-09-23T02:54:36.066Z,100.00
2022-09-23T02:57:06.707Z,100.00
2022-09-23T02:59:35.854Z,100.00
2022-09-23T03:02:34.503Z,100.00
2022-09-23T03:05:11.277Z,100.00
2022-09-23T03:08:22.779Z,100.00
2022-09-23T03:11:12.989Z,100.00
2022-09-23T03:14:06.650Z,100.00
2022-09-23T03:16:53.661Z,100.00
2022-09-23T03:19:28.501Z,100.00
2022-09-23T03:22:17.431Z,100.00
2022-09-23T03:24:53.207Z,100.00
2022-09-23T03:27:27.407Z,100.00
2022-09-23T03:29:56.627Z,100.00
2022-09-23T03:32:28.130Z,100.00
2022-09-23T03:34:59.157Z,100.00
2022-09-23T03:37:47.128Z,100.00
2022-09-23T03:40:43.710Z,100.00
2022-09-23T03:43:14.401Z,100.00
2022-09-23T03:45:42.583Z,100.00
2022-09-23T03:48:09.777Z,100.00
2022-09-23T03:50:37.037Z,100.00
2022-09-23T03:53:04.203Z,100.00
2022-09-23T03:55:32.209Z,100.00
2022-09-23T03:58:00.191Z,100.00
2022-09-23T04:00:27.701Z,100.00
2022-09-23T04:02:54.609Z,100.00
2022-09-23T04:05:21.563Z,100.00
2022-09-23T04:07:49.158Z,100.00
2022-09-23T04:10:16.557Z,100.00
2022-09-23T04:12:44.583Z,100.00
2022-09-23T04:15:11.955Z,100.00
2022-09-23T04:17:38.948Z,100.00
2022-09-23T04:20:06.890Z,100.00
2022-09-23T04:22:35.031Z,100.00
2022-09-23T04:25:02.298Z,100.00
2022-09-23T04:27:30.032Z,100.00
2022-09-23T04:29:58.996Z,100.00
2022-09-23T04:32:26.005Z,100.00
2022-09-23T04:34:52.974Z,100.00
2022-09-23T04:37:19.882Z,100.00
2022-09-23T04:39:46.785Z,100.00
2022-09-23T04:42:14.031Z,100.00
2022-09-23T04:44:40.994Z,100.00
2022-09-23T04:47:08.265Z,100.00
2022-09-23T04:49:35.221Z,100.00
2022-09-23T04:52:02.731Z,100.00
2022-09-23T04:54:29.708Z,100.00
2022-09-23T04:56:57.092Z,100.00
2022-09-23T04:59:24.337Z,100.00
2022-09-23T05:01:51.999Z,100.00
2022-09-23T05:04:19.211Z,100.00
2022-09-23T05:06:46.339Z,100.00
2022-09-23T05:09:18.397Z,100.00
2022-09-23T05:11:46.182Z,100.00
2022-09-23T05:14:13.278Z,100.00
2022-09-23T05:16:40.798Z,100.00
2022-09-23T05:19:07.957Z,100.00
2022-09-23T05:21:38.071Z,100.00
2022-09-23T05:24:05.330Z,100.00
2022-09-23T05:26:33.231Z,100.00
2022-09-23T05:29:00.888Z,100.00
2022-09-23T05:31:30.289Z,100.00
2022-09-23T05:34:04.682Z,100.00
2022-09-23T05:36:38.329Z,100.00
2022-09-23T05:39:07.957Z,100.00
2022-09-23T05:41:35.896Z,100.00
2022-09-23T05:44:03.088Z,100.00
2022-09-23T05:46:32.042Z,100.00
2022-09-23T05:49:02.851Z,100.00
2022-09-23T05:51:32.447Z,100.00
2022-09-23T05:54:02.934Z,100.00
2022-09-23T05:56:31.931Z,100.00
2022-09-23T05:59:01.373Z,100.00
2022-09-23T06:01:33.727Z,100.00
2022-09-23T06:04:04.255Z,100.00
2022-09-23T06:06:41.486Z,100.00
2022-09-23T06:09:13.536Z,100.00
2022-09-23T06:11:41.669Z,100.00
2022-09-23T06:14:13.798Z,100.00
2022-09-23T06:16:40.950Z,100.00
2022-09-23T06:19:07.836Z,100.00
2022-09-23T06:21:38.575Z,100.00
2022-09-23T06:24:07.237Z,100.00
2022-09-23T06:26:37.542Z,100.00
2022-09-23T06:29:11.706Z,100.00
2022-09-23T06:31:40.695Z,100.00
2022-09-23T06:34:13.525Z,100.00
2022-09-23T06:36:46.447Z,100.00
2022-09-23T06:39:17.065Z,100.00
2022-09-23T06:41:47.002Z,100.00
2022-09-23T06:44:15.175Z,100.00
2022-09-23T06:46:42.793Z,100.00
2022-09-23T06:49:10.623Z,100.00
2022-09-23T06:51:37.565Z,100.00
2022-09-23T06:54:04.718Z,100.00
2022-09-23T06:56:37.784Z,100.00
2022-09-23T06:59:09.572Z,100.00
2022-09-23T07:01:36.700Z,100.00
2022-09-23T07:04:03.864Z,100.00
2022-09-23T07:06:30.883Z,100.00
2022-09-23T07:08:57.789Z,100.00
2022-09-23T07:11:25.807Z,100.00
2022-09-23T07:13:52.862Z,100.00
2022-09-23T07:16:21.078Z,100.00
2022-09-23T07:18:48.118Z,100.00
2022-09-23T07:21:18.338Z,100.00
2022-09-23T07:23:48.341Z,100.00
2022-09-23T07:26:18.020Z,100.00
2022-09-23T07:28:47.360Z,100.00
2022-09-23T07:31:31.504Z,100.00
2022-09-23T07:34:02.653Z,100.00
2022-09-23T07:36:32.682Z,100.00
2022-09-23T07:39:02.170Z,100.00
2022-09-23T07:41:32.414Z,100.00
2022-09-23T07:44:01.074Z,100.00
2022-09-23T07:46:31.964Z,100.00
2022-09-23T07:49:01.867Z,100.00
2022-09-23T07:51:38.707Z,100.00
2022-09-23T07:54:11.082Z,100.00
2022-09-23T07:56:39.205Z,100.00
2022-09-23T07:59:10.890Z,100.00
2022-09-23T08:01:42.408Z,100.00
2022-09-23T08:04:18.987Z,100.00
2022-09-23T08:06:54.022Z,100.00
2022-09-23T08:09:25.533Z,100.00
2022-09-23T08:11:52.628Z,100.00
2022-09-23T08:14:22.201Z,100.00
2022-09-23T08:16:50.832Z,100.00
2022-09-23T08:19:18.424Z,100.00
2022-09-23T08:21:49.849Z,100.00
2022-09-23T08:24:20.799Z,100.00
2022-09-23T08:26:49.075Z,100.00
2022-09-23T08:29:18.607Z,100.00
2022-09-23T08:31:46.029Z,100.00
2022-09-23T08:34:13.645Z,100.00
2022-09-23T08:36:40.604Z,100.00
2022-09-23T08:39:08.222Z,100.00
2022-09-23T08:41:59.043Z,100.00
2022-09-23T08:44:53.687Z,100.00
2022-09-23T08:47:51.171Z,100.00
2022-09-23T08:50:21.977Z,100.00
2022-09-23T08:52:58.880Z,100.00
2022-09-23T08:55:43.563Z,100.00
2022-09-23T08:58:34.270Z,96.61
2022-09-23T09:01:17.976Z,88.23
2022-09-23T09:03:56.079Z,82.67
2022-09-23T09:06:53.648Z,77.76
2022-09-23T09:09:33.813Z,76.80
2022-09-23T09:12:11.087Z,74.26
2022-09-23T09:14:57.490Z,65.62
2022-09-23T09:17:36.845Z,57.07
2022-09-23T09:20:19.312Z,52.17
2022-09-23T09:22:55.978Z,53.00
2022-09-23T09:25:45.198Z,51.47
2022-09-23T09:28:16.319Z,47.92
2022-09-23T09:30:48.603Z,47.85
2022-09-23T09:33:19.151Z,47.73
2022-09-23T09:36:04.017Z,45.46
2022-09-23T09:38:31.798Z,42.05
2022-09-23T09:41:11.515Z,45.46
2022-09-23T09:43:44.935Z,43.30
2022-09-23T09:46:37.421Z,42.63
2022-09-23T09:49:23.209Z,41.32
2022-09-23T09:52:14.468Z,36.34
2022-09-23T09:54:41.804Z,35.22
2022-09-23T09:57:33.566Z,37.67
2022-09-23T10:00:26.496Z,35.60
2022-09-23T10:03:01.494Z,36.63
2022-09-23T10:05:34.377Z,37.43
2022-09-23T10:08:32.317Z,37.75
2022-09-23T10:11:04.129Z,36.38
2022-09-23T10:13:32.208Z,36.83
2022-09-23T10:16:03.836Z,38.11
2022-09-23T10:18:34.487Z,41.15
2022-09-23T10:21:33.176Z,40.76
2022-09-23T10:24:03.060Z,42.52
2022-09-23T10:26:34.395Z,44.97
2022-09-23T10:29:23.117Z,50.46
2022-09-23T10:32:10.649Z,48.75
2022-09-23T10:34:46.726Z,49.87
2022-09-23T10:37:41.334Z,49.50
2022-09-23T10:40:57.175Z,46.70
2022-09-23T10:44:15.248Z,43.83
2022-09-23T10:47:14.522Z,45.70
2022-09-23T10:49:54.063Z,43.70
2022-09-23T10:52:53.299Z,41.40
2022-09-23T10:55:37.158Z,38.69
2022-09-23T10:58:41.786Z,36.41
2022-09-23T11:01:47.590Z,33.56
2022-09-23T11:04:42.433Z,31.94
2022-09-23T11:07:27.776Z,34.10
2022-09-23T11:10:45.504Z,34.18
2022-09-23T11:13:32.169Z,32.93
2022-09-23T11:16:27.488Z,30.85
2022-09-23T11:19:01.988Z,30.28
2022-09-23T11:21:51.694Z,31.55
2022-09-23T11:24:50.205Z,32.76
2022-09-23T11:27:43.957Z,34.41
2022-09-23T11:30:13.227Z,35.73
2022-09-23T11:32:52.255Z,36.41
2022-09-23T11:35:52.522Z,37.63
2022-09-23T11:38:31.044Z,40.10
2022-09-23T11:41:03.980Z,39.45
2022-09-23T11:43:37.001Z,41.64
2022-09-23T11:46:26.085Z,41.65
2022-09-23T11:49:15.858Z,40.76
2022-09-23T11:52:12.800Z,42.25
2022-09-23T11:55:07.445Z,44.51
2022-09-23T11:58:02.217Z,44.47
2022-09-23T12:00:36.336Z,45.38
2022-09-23T12:03:06.859Z,45.03
2022-09-23T12:05:58.530Z,45.13
2022-09-23T12:08:37.230Z,44.61
2022-09-23T12:11:25.482Z,44.15
2022-09-23T12:14:14.443Z,45.14
2022-09-23T12:17:23.401Z,48.34
2022-09-23T12:19:55.435Z,47.33
2022-09-23T12:22:53.092Z,46.53
2022-09-23T12:25:40.326Z,45.35
2022-09-23T12:28:18.774Z,43.66
2022-09-23T12:30:48.099Z,44.19
2022-09-23T12:33:27.664Z,44.97
2022-09-23T12:36:12.264Z,45.57
2022-09-23T12:38:55.703Z,46.72
2022-09-23T12:41:38.076Z,45.51
2022-09-23T12:44:12.415Z,46.15
2022-09-23T12:46:45.144Z,48.04
2022-09-23T12:49:36.409Z,46.30
2022-09-23T12:52:12.656Z,46.50
2022-09-23T12:54:41.639Z,48.68
2022-09-23T12:57:13.008Z,47.82
2022-09-23T13:00:00.255Z,49.66
2022-09-23T13:02:32.182Z,48.90
2022-09-23T13:05:35.477Z,49.06
2022-09-23T13:08:11.965Z,47.00
2022-09-23T13:10:44.567Z,46.10
2022-09-23T13:13:35.318Z,46.55
2022-09-23T13:16:30.662Z,46.61
2022-09-23T13:19:00.066Z,48.51
2022-09-23T13:21:46.162Z,48.34
2022-09-23T13:24:13.514Z,48.37
2022-09-23T13:27:08.193Z,47.27
2022-09-23T13:29:47.047Z,47.81
2022-09-23T13:32:20.152Z,49.20
2022-09-23T13:34:56.509Z,50.13
2022-09-23T13:37:30.025Z,47.07
2022-09-23T13:40:18.605Z,48.57
2022-09-23T13:42:52.953Z,49.68
2022-09-23T13:45:22.867Z,49.46
2022-09-23T13:47:55.650Z,50.13
2022-09-23T13:50:24.678Z,49.80
2022-09-23T13:52:55.199Z,49.75
2022-09-23T13:55:25.652Z,49.93
2022-09-23T13:58:07.700Z,53.35
2022-09-23T14:00:37.358Z,51.01
2022-09-23T14:03:36.174Z,51.29
2022-09-23T14:06:16.254Z,52.05
2022-09-23T14:08:49.788Z,53.20
2022-09-23T14:11:19.307Z,53.05
2022-09-23T14:13:50.833Z,50.96
2022-09-23T14:16:19.847Z,50.49
2022-09-23T14:18:52.128Z,51.32
2022-09-23T14:21:37.451Z,52.01
2022-09-23T14:24:10.900Z,52.14
2022-09-23T14:26:39.697Z,54.85
2022-09-23T14:29:18.713Z,53.85
2022-09-23T14:31:58.487Z,53.18
2022-09-23T14:34:48.385Z,52.33
2022-09-23T14:37:58.829Z,53.87
2022-09-23T14:40:28.438Z,51.58
2022-09-23T14:43:21.953Z,54.33
2022-09-23T14:45:53.490Z,52.04
2022-09-23T14:48:35.004Z,54.19
2022-09-23T14:51:06.279Z,54.83
2022-09-23T14:53:43.108Z,54.58
2022-09-23T14:56:18.484Z,53.11
2022-09-23T14:58:52.319Z,51.55
2022-09-23T15:01:37.383Z,50.98
2022-09-23T15:04:18.263Z,51.19
2022-09-23T15:06:55.390Z,51.32
2022-09-23T15:09:29.765Z,51.04
2022-09-23T15:12:00.535Z,53.27
2022-09-23T15:14:39.102Z,53.18
2022-09-23T15:17:16.413Z,54.15
2022-09-23T15:19:44.101Z,52.42
2022-09-23T15:22:12.836Z,53.66
2022-09-23T15:24:45.249Z,52.54
2022-09-23T15:27:31.724Z,54.50
2022-09-23T15:30:16.951Z,55.38
2022-09-23T15:32:45.608Z,55.10
2022-09-23T15:35:19.063Z,55.29
2022-09-23T15:37:49.549Z,56.07
2022-09-23T15:40:19.433Z,56.46
2022-09-23T15:42:51.689Z,57.23
2022-09-23T15:45:22.262Z,58.43
2022-09-23T15:47:50.823Z,58.83
2022-09-23T15:50:18.549Z,56.98
2022-09-23T15:52:46.051Z,58.37
2022-09-23T15:55:18.514Z,58.31
2022-09-23T15:57:45.887Z,59.56
2022-09-23T16:00:13.632Z,59.97
2022-09-23T16:02:43.585Z,60.75
2022-09-23T16:05:18.391Z,61.52
2022-09-23T16:07:48.120Z,62.71
2022-09-23T16:10:16.002Z,63.06
2022-09-23T16:12:43.677Z,63.91
2022-09-23T16:15:20.708Z,64.05
2022-09-23T16:17:48.251Z,65.26
2022-09-23T16:20:17.910Z,64.49
2022-09-23T16:23:00.276Z,64.79
2022-09-23T16:25:30.283Z,68.36
2022-09-23T16:27:58.407Z,65.79
2022-09-23T16:30:31.698Z,66.91
2022-09-23T16:33:00.797Z,67.83
2022-09-23T16:35:31.271Z,67.45
2022-09-23T16:37:59.592Z,67.66
2022-09-23T16:40:27.381Z,67.78
2022-09-23T16:42:55.909Z,68.29
2022-09-23T16:45:24.156Z,69.38
2022-09-23T16:47:52.691Z,70.23
2022-09-23T16:50:25.028Z,71.14
2022-09-23T16:52:56.243Z,71.17
2022-09-23T16:55:27.360Z,71.77
2022-09-23T16:57:55.619Z,73.37
2022-09-23T17:00:42.587Z,74.46
2022-09-23T17:03:31.207Z,74.99
2022-09-23T17:06:00.669Z,76.44
2022-09-23T17:08:30.102Z,77.07
2022-09-23T17:10:59.168Z,77.80
2022-09-23T17:13:28.300Z,78.27
2022-09-23T17:15:56.102Z,79.41
2022-09-23T17:18:23.535Z,81.42
2022-09-23T17:21:06.472Z,81.75
2022-09-23T17:23:35.947Z,82.72
2022-09-23T17:26:05.378Z,83.88
2022-09-23T17:28:32.880Z,84.35
2022-09-23T17:31:02.322Z,85.12
2022-09-23T17:33:31.692Z,85.09
2022-09-23T17:36:00.218Z,84.98
2022-09-23T17:38:29.477Z,85.38
2022-09-23T17:40:59.304Z,86.47
2022-09-23T17:43:27.124Z,86.91
2022-09-23T17:45:56.468Z,86.65
2022-09-23T17:48:25.627Z,85.44
2022-09-23T17:51:04.989Z,85.69
2022-09-23T17:53:34.969Z,85.57
2022-09-23T17:56:29.970Z,85.10
2022-09-23T17:59:01.743Z,85.14
2022-09-23T18:01:29.930Z,86.37
2022-09-23T18:03:59.645Z,85.77
2022-09-23T18:06:31.606Z,86.54
2022-09-23T18:09:06.499Z,85.86
2022-09-23T18:11:37.016Z,87.00
2022-09-23T18:14:18.684Z,87.13
2022-09-23T18:16:48.388Z,87.59
2022-09-23T18:19:17.956Z,88.15
2022-09-23T18:21:49.447Z,88.26
2022-09-23T18:24:34.015Z,87.04
2022-09-23T18:27:02.235Z,88.18
2022-09-23T18:29:29.674Z,89.37
2022-09-23T18:31:57.160Z,88.32
2022-09-23T18:34:25.269Z,89.53
2022-09-23T18:36:56.129Z,88.44
2022-09-23T18:39:23.786Z,89.91
2022-09-23T18:41:51.121Z,90.23
2022-09-23T18:44:19.049Z,90.58
2022-09-23T18:46:46.497Z,90.83
2022-09-23T18:49:32.468Z,91.66
2022-09-23T18:52:00.239Z,90.46
2022-09-23T18:54:28.844Z,91.15
2022-09-23T18:56:56.928Z,91.97
2022-09-23T18:59:27.811Z,93.16
2022-09-23T19:01:55.996Z,92.52
2022-09-23T19:04:25.211Z,91.75
2022-09-23T19:06:54.801Z,91.86
2022-09-23T19:09:22.121Z,94.25
2022-09-23T19:11:53.380Z,94.69
2022-09-23T19:14:21.268Z,95.27
2022-09-23T19:16:51.907Z,96.62
2022-09-23T19:19:19.397Z,97.19
2022-09-23T19:21:47.013Z,96.85
2022-09-23T19:24:20.252Z,97.17
2022-09-23T19:26:48.597Z,97.90
2022-09-23T19:29:19.484Z,98.17
2022-09-23T19:31:48.468Z,99.14
2022-09-23T19:34:24.781Z,99.64
2022-09-23T19:36:52.938Z,99.43
2022-09-23T19:39:22.857Z,100.00
2022-09-23T19:41:52.280Z,100.00
2022-09-23T19:44:21.434Z,100.00
2022-09-23T19:46:55.076Z,100.00
2022-09-23T19:49:24.979Z,100.00
2022-09-23T19:51:55.311Z,100.00
2022-09-23T19:54:23.573Z,100.00
2022-09-23T19:56:51.315Z,100.00
2022-09-23T19:59:19.497Z,100.00
2022-09-23T20:01:48.625Z,100.00
2022-09-23T20:04:16.977Z,100.00
2022-09-23T20:06:45.924Z,100.00
2022-09-23T20:09:13.538Z,100.00
2022-09-23T20:11:43.085Z,100.00
2022-09-23T20:14:11.835Z,100.00
2022-09-23T20:16:39.177Z,100.00
2022-09-23T20:19:06.713Z,100.00
2022-09-23T20:21:35.306Z,100.00
2022-09-23T20:24:05.633Z,100.00
2022-09-23T20:26:51.954Z,100.00
2022-09-23T20:29:19.338Z,100.00
2022-09-23T20:31:46.727Z,100.00
2022-09-23T20:34:14.089Z,100.00
2022-09-23T20:36:42.251Z,100.00
2022-09-23T20:39:10.255Z,100.00
2022-09-23T20:41:39.270Z,100.00
2022-09-23T20:44:12.442Z,100.00
2022-09-23T20:46:44.106Z,100.00
2022-09-23T20:49:16.353Z,100.00
2022-09-23T20:51:44.021Z,100.00
2022-09-23T20:54:12.203Z,100.00
2022-09-23T20:56:39.721Z,100.00
2022-09-23T20:59:07.278Z,100.00
2022-09-23T21:01:36.517Z,100.00
2022-09-23T21:04:05.768Z,100.00
2022-09-23T21:06:36.429Z,100.00
2022-09-23T21:09:05.283Z,100.00
2022-09-23T21:11:33.978Z,100.00
2022-09-23T21:14:02.227Z,100.00
2022-09-23T21:16:30.339Z,100.00
2022-09-23T21:18:58.874Z,100.00
2022-09-23T21:21:26.570Z,100.00
2022-09-23T21:23:53.915Z,100.00
2022-09-23T21:26:25.855Z,100.00
2022-09-23T21:28:57.129Z,100.00
2022-09-23T21:31:27.518Z,100.00
2022-09-23T21:34:14.500Z,100.00
2022-09-23T21:36:47.822Z,100.00
2022-09-23T21:39:15.222Z,100.00
2022-09-23T21:41:42.612Z,100.00
2022-09-23T21:44:10.194Z,100.00
2022-09-23T21:46:37.608Z,100.00
2022-09-23T21:49:05.358Z,100.00
2022-09-23T21:51:37.525Z,100.00
2022-09-23T21:54:05.682Z,100.00
2022-09-23T21:56:35.347Z,100.00
2022-09-23T21:59:03.923Z,100.00
2022-09-23T22:01:35.210Z,100.00
2022-09-23T22:04:07.878Z,100.00
2022-09-23T22:06:38.129Z,100.00
2022-09-23T22:09:08.939Z,100.00
2022-09-23T22:11:56.901Z,100.00
2022-09-23T22:14:26.980Z,100.00
2022-09-23T22:16:57.471Z,100.00
2022-09-23T22:19:35.552Z,100.00
2022-09-23T22:22:08.057Z,100.00
2022-09-23T22:24:35.396Z,100.00
2022-09-23T22:27:02.743Z,100.00
2022-09-23T22:29:48.990Z,100.00
2022-09-23T22:32:34.886Z,100.00
2022-09-23T22:35:02.484Z,100.00
2022-09-23T22:37:34.221Z,100.00
2022-09-23T22:40:07.293Z,100.00
2022-09-23T22:42:36.449Z,100.00
2022-09-23T22:45:05.792Z,100.00
2022-09-23T22:47:38.203Z,100.00
2022-09-23T22:50:09.953Z,100.00
2022-09-23T22:52:37.801Z,100.00
2022-09-23T22:55:07.977Z,100.00
2022-09-23T22:57:36.464Z,100.00
2022-09-23T23:00:08.181Z,100.00
2022-09-23T23:02:36.723Z,100.00
2022-09-23T23:05:04.283Z,100.00
2022-09-23T23:07:32.115Z,100.00
2022-09-23T23:09:59.400Z,100.00
2022-09-23T23:12:26.740Z,100.00
2022-09-23T23:14:54.818Z,100.00
2022-09-23T23:17:22.106Z,100.00
2022-09-23T23:19:50.789Z,100.00
2022-09-23T23:22:18.267Z,100.00
2022-09-23T23:24:45.579Z,100.00
2022-09-23T23:27:12.911Z,100.00
2022-09-23T23:29:40.277Z,100.00
2022-09-23T23:32:09.622Z,100.00
2022-09-23T23:34:36.947Z,100.00
2022-09-23T23:37:04.425Z,100.00
2022-09-23T23:39:33.639Z,100.00
2022-09-23T23:42:00.965Z,100.00
2022-09-23T23:44:31.072Z,100.00
2022-09-23T23:46:58.523Z,100.00
2022-09-23T23:49:26.063Z,100.00
2022-09-23T23:51:53.659Z,100.00
2022-09-23T23:54:21.085Z,100.00
2022-09-23T23:56:48.756Z,100.00
2022-09-23T23:59:16.282Z,100.00
